Time;durP1;ratioP1;P1;durP2;ratioP2;P2;SDS_P1;SDS_P2;PMS_P1;PMS_P2;Temp;Humidity;BMP_temperature;BMP_pressure;BME280_temperature;BME280_humidity;BME280_pressure;Samples;Min_cycle;Max_cycle;Signal;HPM_P1;HPM_P2
2021/09/17 00:02:09;;;;;;;16.60;12.70;;;;;;;20.16;70.32;98552.75;236098;1195;139635;-65
2021/09/17 00:07:13;;;;;;;18.70;13.20;;;;;;;20.17;70.27;98548.94;235812;1195;138460;-64
2021/09/17 00:12:16;;;;;;;17.70;12.20;;;;;;;20.18;70.33;98551.44;235510;1196;139371;-64
2021/09/17 00:17:20;;;;;;;15.90;11.90;;;;;;;20.16;70.31;98552.61;235678;1196;139006;-63
2021/09/17 00:22:23;;;;;;;17.60;13.30;;;;;;;20.20;70.52;98545.23;236197;1195;140518;-69
2021/09/17 00:27:26;;;;;;;19.40;13.40;;;;;;;20.26;70.66;98541.33;236010;1195;139126;-66
2021/09/17 00:32:30;;;;;;;18.40;13.00;;;;;;;20.25;70.48;98544.61;235932;1196;137887;-66
2021/09/17 00:37:40;;;;;;;16.20;12.70;;;;;;;20.21;70.48;98543.49;235453;1196;138924;-64
2021/09/17 00:42:49;;;;;;;14.80;11.70;;;;;;;20.20;70.42;98536.41;236002;1195;139803;-65
2021/09/17 00:47:52;;;;;;;15.40;11.90;;;;;;;20.24;70.65;98532.36;236118;1195;139858;-62
2021/09/17 00:52:56;;;;;;;15.10;12.60;;;;;;;20.28;70.55;98520.73;235618;1196;139233;-66
2021/09/17 00:57:59;;;;;;;19.20;12.80;;;;;;;20.27;70.44;98511.11;235814;1195;138386;-65
2021/09/17 01:03:02;;;;;;;16.60;11.80;;;;;;;20.23;70.43;98514.41;236143;1195;139050;-67
2021/09/17 01:08:05;;;;;;;14.70;11.30;;;;;;;20.21;70.44;98506.34;235916;1194;139192;-63
2021/09/17 01:13:09;;;;;;;14.70;12.90;;;;;;;20.23;70.52;98490.27;235644;1196;138817;-64
2021/09/17 01:18:12;;;;;;;15.80;13.20;;;;;;;20.23;70.59;98477.37;235633;1196;141357;-64
2021/09/17 01:23:15;;;;;;;13.30;11.80;;;;;;;20.24;70.52;98473.80;236150;1195;138516;-65
2021/09/17 01:28:27;;;;;;;14.30;12.30;;;;;;;20.24;70.58;98470.36;236063;1195;138932;-63
2021/09/17 01:33:34;;;;;;;14.30;12.70;;;;;;;20.26;70.44;98464.58;235844;1196;139698;-63
2021/09/17 01:38:40;;;;;;;15.40;12.90;;;;;;;20.26;70.54;98456.91;235686;1196;138600;-67
2021/09/17 01:43:58;;;;;;;14.50;11.60;;;;;;;20.26;70.57;98446.52;235420;1196;138633;-64
2021/09/17 01:49:09;;;;;;;16.60;12.90;;;;;;;20.29;70.53;98446.44;235823;1196;139923;-70
2021/09/17 01:54:12;;;;;;;15.70;12.60;;;;;;;20.28;70.45;98440.58;235662;1196;139202;-64
2021/09/17 01:59:15;;;;;;;17.50;13.30;;;;;;;20.28;70.35;98437.84;235687;1196;138606;-64
2021/09/17 02:04:19;;;;;;;16.10;13.00;;;;;;;20.24;70.30;98430.21;236114;1195;139326;-65
2021/09/17 02:09:22;;;;;;;16.60;12.50;;;;;;;20.21;70.26;98427.67;236209;1195;139586;-66
2021/09/17 02:14:26;;;;;;;17.30;14.10;;;;;;;20.23;70.50;98426.32;235688;1196;139718;-64
2021/09/17 02:19:29;;;;;;;17.90;14.40;;;;;;;20.23;70.46;98418.63;235914;1195;138541;-61
2021/09/17 02:24:33;;;;;;;16.40;13.60;;;;;;;20.20;70.37;98419.83;235922;1195;138873;-65
2021/09/17 02:29:37;;;;;;;19.50;16.10;;;;;;;20.18;70.49;98408.90;235815;1196;139237;-67
2021/09/17 02:34:41;;;;;;;20.60;16.90;;;;;;;20.18;70.45;98404.91;235800;1195;138957;-65
2021/09/17 02:39:45;;;;;;;21.90;17.00;;;;;;;20.13;70.33;98407.63;235723;1195;138902;-62
2021/09/17 02:44:50;;;;;;;23.80;15.50;;;;;;;20.06;70.34;98399.08;235816;1196;138234;-64
2021/09/17 02:49:53;;;;;;;21.60;16.80;;;;;;;20.02;70.29;98396.02;235787;1195;140407;-64
2021/09/17 02:54:56;;;;;;;20.70;17.60;;;;;;;19.98;70.22;98394.41;235766;1195;138670;-63
2021/09/17 03:00:00;;;;;;;24.20;18.70;;;;;;;19.95;70.34;98394.42;235776;1195;139206;-66
2021/09/17 03:05:04;;;;;;;24.70;16.50;;;;;;;19.87;70.29;98388.01;235770;1195;138756;-66
2021/09/17 03:10:08;;;;;;;24.80;18.10;;;;;;;19.83;70.37;98387.21;235532;1196;138918;-66
2021/09/17 03:15:12;;;;;;;25.30;18.50;;;;;;;19.83;70.35;98380.86;235967;1195;139357;-64
2021/09/17 03:20:16;;;;;;;24.30;19.20;;;;;;;19.81;70.35;98381.37;235880;1195;138312;-65
2021/09/17 03:25:19;;;;;;;25.00;17.40;;;;;;;19.79;70.37;98379.58;235483;1196;139068;-62
2021/09/17 03:30:23;;;;;;;25.00;18.10;;;;;;;19.75;70.34;98373.85;235704;1196;139042;-66
2021/09/17 03:35:27;;;;;;;28.70;19.30;;;;;;;19.75;70.56;98370.08;235693;1195;138939;-64
2021/09/17 03:40:36;;;;;;;30.70;21.00;;;;;;;19.78;70.56;98364.55;235830;1196;138501;-62
2021/09/17 03:45:39;;;;;;;28.90;18.70;;;;;;;19.75;70.60;98363.11;235157;1196;138726;-62
2021/09/17 03:50:43;;;;;;;25.50;18.50;;;;;;;19.72;70.63;98363.23;235573;1196;139158;-62
2021/09/17 03:55:46;;;;;;;26.70;20.60;;;;;;;19.68;70.58;98367.14;234937;1196;138802;-62
2021/09/17 04:00:50;;;;;;;152.80;105.50;;;;;;;19.68;70.90;98368.59;235739;1196;139204;-63
2021/09/17 04:05:54;;;;;;;21.20;15.20;;;;;;;19.68;71.34;98371.59;235719;1196;139025;-63
2021/09/17 04:10:57;;;;;;;38.70;30.10;;;;;;;19.83;71.30;98370.47;235875;1196;139632;-61
2021/09/17 04:16:00;;;;;;;25.70;17.20;;;;;;;19.96;71.48;98370.52;236052;1195;139719;-59
2021/09/17 04:21:03;;;;;;;18.60;13.70;;;;;;;20.11;71.29;98378.45;236346;1195;138834;-64
2021/09/17 04:26:06;;;;;;;19.70;13.60;;;;;;;20.21;70.64;98385.19;235946;1195;139082;-62
2021/09/17 04:31:09;;;;;;;56.50;48.00;;;;;;;20.10;69.74;98386.39;235731;1196;138489;-66
2021/09/17 04:36:13;;;;;;;18.30;12.70;;;;;;;19.85;69.02;98384.67;235051;1196;138425;-62
2021/09/17 04:41:16;;;;;;;16.10;12.00;;;;;;;19.53;68.74;98385.80;235588;1195;138759;-65
2021/09/17 04:46:19;;;;;;;12.10;8.40;;;;;;;19.24;68.78;98377.64;235808;1195;139169;-63
2021/09/17 04:51:22;;;;;;;11.00;7.50;;;;;;;19.03;68.86;98371.14;235928;1195;139000;-62
2021/09/17 04:56:26;;;;;;;10.10;7.20;;;;;;;18.85;68.92;98367.11;235695;1196;138941;-62
2021/09/17 05:01:29;;;;;;;12.20;7.10;;;;;;;18.69;69.01;98374.58;235783;1195;138321;-66
2021/09/17 05:06:33;;;;;;;9.20;6.90;;;;;;;18.45;68.72;98374.05;235605;1196;139451;-61
2021/09/17 05:11:36;;;;;;;7.70;5.90;;;;;;;18.23;69.11;98377.77;235675;1196;138316;-63
2021/09/17 05:16:39;;;;;;;6.70;5.30;;;;;;;18.11;69.07;98382.06;235740;1195;138903;-62
2021/09/17 05:21:42;;;;;;;6.90;4.90;;;;;;;18.01;69.08;98384.17;235750;1195;138526;-63
2021/09/17 05:26:45;;;;;;;6.40;5.20;;;;;;;17.93;69.21;98377.85;235710;1195;139375;-62
2021/09/17 05:31:48;;;;;;;7.70;5.20;;;;;;;17.80;69.22;98377.39;235498;1196;137945;-64
2021/09/17 05:36:51;;;;;;;7.00;5.30;;;;;;;17.64;69.21;98377.55;235776;1195;138156;-60
2021/09/17 05:41:54;;;;;;;8.40;5.40;;;;;;;17.56;69.32;98374.08;236080;1195;139467;-62
2021/09/17 05:46:58;;;;;;;7.20;6.10;;;;;;;17.55;69.64;98380.23;235974;1195;139548;-63
2021/09/17 05:52:01;;;;;;;9.70;5.90;;;;;;;17.55;69.82;98385.14;235598;1196;138741;-66
2021/09/17 05:57:07;;;;;;;6.70;4.70;;;;;;;17.50;69.68;98383.59;236161;1195;142665;-61
2021/09/17 06:02:10;;;;;;;8.50;3.80;;;;;;;17.39;69.58;98395.72;235643;1196;138368;-59
2021/09/17 06:07:13;;;;;;;4.30;3.10;;;;;;;17.30;69.50;98402.55;235944;1195;138815;-61
2021/09/17 06:12:17;;;;;;;6.00;3.70;;;;;;;17.25;69.82;98403.10;235967;1195;138645;-62
2021/09/17 06:17:20;;;;;;;5.40;3.70;;;;;;;17.28;69.83;98395.75;235865;1196;139437;-66
2021/09/17 06:22:23;;;;;;;5.50;3.80;;;;;;;17.23;69.90;98396.31;236095;1195;138467;-61
2021/09/17 06:27:26;;;;;;;6.00;3.90;;;;;;;17.19;69.92;98398.58;236016;1196;138404;-62
2021/09/17 06:32:29;;;;;;;4.40;3.10;;;;;;;17.15;70.15;98406.83;235953;1195;139793;-63
2021/09/17 06:37:33;;;;;;;3.30;2.10;;;;;;;17.14;70.07;98409.12;236080;1195;138540;-61
2021/09/17 06:42:36;;;;;;;3.10;1.90;;;;;;;17.10;70.08;98405.58;235795;1195;139892;-62
2021/09/17 06:47:53;;;;;;;4.80;2.00;;;;;;;17.02;69.78;98412.77;235963;1195;138959;-64
2021/09/17 06:52:58;;;;;;;2.90;1.80;;;;;;;16.91;69.75;98420.68;235789;1195;138714;-63
2021/09/17 06:58:03;;;;;;;6.10;2.70;;;;;;;16.86;69.81;98431.05;236107;1195;139048;-62
2021/09/17 07:03:07;;;;;;;4.20;2.40;;;;;;;16.84;69.83;98443.09;236468;1195;138746;-61
2021/09/17 07:08:10;;;;;;;4.50;2.30;;;;;;;16.79;69.75;98457.22;235667;1195;138259;-59
2021/09/17 07:13:14;;;;;;;3.30;1.80;;;;;;;16.72;69.80;98474.10;235705;1195;138820;-59
2021/09/17 07:18:17;;;;;;;4.00;1.80;;;;;;;16.64;69.63;98488.16;235622;1195;139383;-63
2021/09/17 07:23:20;;;;;;;2.70;1.90;;;;;;;16.60;69.82;98496.23;235862;1196;139082;-60
2021/09/17 07:28:23;;;;;;;3.30;2.00;;;;;;;16.57;69.74;98492.89;235731;1195;138046;-61
2021/09/17 07:33:27;;;;;;;2.70;1.90;;;;;;;16.54;69.79;98492.83;235689;1196;138376;-59
2021/09/17 07:38:30;;;;;;;2.40;1.60;;;;;;;16.50;69.85;98505.90;235836;1195;138152;-61
2021/09/17 07:43:33;;;;;;;2.30;1.20;;;;;;;16.50;69.90;98509.16;236034;1195;139252;-60
2021/09/17 07:48:36;;;;;;;4.00;1.40;;;;;;;16.49;70.01;98520.05;235701;1196;138677;-60
2021/09/17 07:53:39;;;;;;;2.90;1.30;;;;;;;16.45;69.98;98525.56;235693;1196;138501;-62
2021/09/17 07:58:42;;;;;;;3.40;1.50;;;;;;;16.41;69.90;98530.63;235741;1196;139183;-61
2021/09/17 08:03:45;;;;;;;4.70;1.80;;;;;;;16.32;69.66;98533.21;236178;1195;138467;-63
2021/09/17 08:08:49;;;;;;;3.50;1.40;;;;;;;16.27;69.79;98539.10;236149;1195;138795;-61
2021/09/17 08:13:52;;;;;;;2.50;1.20;;;;;;;16.27;70.16;98533.88;236023;1195;138301;-61
2021/09/17 08:18:55;;;;;;;2.40;1.40;;;;;;;16.30;70.06;98538.95;235991;1196;138208;-62
2021/09/17 08:23:58;;;;;;;5.90;1.60;;;;;;;16.30;70.07;98535.80;235946;1195;138213;-62
2021/09/17 08:29:01;;;;;;;4.00;1.20;;;;;;;16.26;70.11;98542.79;236009;1194;139179;-62
2021/09/17 08:34:07;;;;;;;2.70;1.40;;;;;;;16.27;70.25;98546.42;235635;1195;139974;-60
2021/09/17 08:39:11;;;;;;;4.30;1.40;;;;;;;16.27;70.32;98543.91;236138;1194;139171;-61
2021/09/17 08:44:15;;;;;;;2.30;1.60;;;;;;;16.30;70.28;98548.86;235852;1196;138495;-61
2021/09/17 08:49:23;;;;;;;2.40;1.30;;;;;;;16.28;70.25;98554.41;235871;1195;137943;-61
2021/09/17 08:54:27;;;;;;;1.30;1.20;;;;;;;16.23;70.45;98549.30;235890;1196;139116;-61
2021/09/17 08:59:30;;;;;;;2.60;1.50;;;;;;;16.27;70.48;98552.52;235833;1196;138765;-61
2021/09/17 09:04:41;;;;;;;4.90;1.90;;;;;;;16.27;70.59;98551.80;235781;1196;141510;-60
2021/09/17 09:09:47;;;;;;;2.90;1.90;;;;;;;16.31;70.82;98553.23;235731;1196;138471;-64
2021/09/17 09:15:11;;;;;;;3.00;1.20;;;;;;;16.35;70.82;98555.18;235769;1196;140521;-63
2021/09/17 09:20:50;;;;;;;3.60;1.50;;;;;;;16.33;70.57;98555.93;235948;1195;138373;-62
2021/09/17 09:26:05;;;;;;;3.20;1.90;;;;;;;16.31;70.59;98558.59;235867;1195;138865;-63
2021/09/17 09:31:10;;;;;;;3.00;1.50;;;;;;;16.33;70.64;98556.23;235419;1196;138688;-63
2021/09/17 09:36:16;;;;;;;5.00;1.50;;;;;;;16.34;70.66;98554.42;235509;1196;138561;-63
2021/09/17 09:41:23;;;;;;;3.50;1.30;;;;;;;16.34;70.70;98553.14;235894;1196;138328;-62
2021/09/17 09:46:28;;;;;;;3.10;1.40;;;;;;;16.30;70.74;98555.26;235921;1195;138265;-63
2021/09/17 09:51:37;;;;;;;2.60;1.50;;;;;;;16.30;71.05;98549.37;235735;1196;138892;-64
2021/09/17 09:56:42;;;;;;;2.10;1.40;;;;;;;16.34;70.99;98547.21;235740;1196;138317;-61
2021/09/17 10:01:46;;;;;;;429.00;294.90;;;;;;;16.33;70.86;98551.02;235857;1195;138700;-62
2021/09/17 10:07:01;;;;;;;6.30;4.50;;;;;;;16.38;71.31;98548.96;235788;1196;139404;-62
2021/09/17 10:12:07;;;;;;;2.10;1.40;;;;;;;16.41;71.18;98547.46;235893;1195;138513;-63
2021/09/17 10:17:22;;;;;;;2.70;1.20;;;;;;;16.42;70.63;98546.70;236024;1194;139208;-63
2021/09/17 10:22:27;;;;;;;2.20;1.40;;;;;;;16.41;70.79;98547.63;235836;1196;141107;-62
2021/09/17 10:27:30;;;;;;;1.80;1.10;;;;;;;16.41;70.63;98546.27;235880;1196;139008;-63
2021/09/17 10:32:41;;;;;;;74.60;45.60;;;;;;;16.38;70.64;98540.99;236005;1195;138776;-65
2021/09/17 10:37:47;;;;;;;3.80;1.80;;;;;;;16.37;70.61;98537.60;235809;1195;138862;-64
2021/09/17 10:43:08;;;;;;;2.10;1.40;;;;;;;16.38;70.86;98535.20;235776;1195;138917;-64
2021/09/17 10:48:13;;;;;;;2.70;1.80;;;;;;;16.45;71.12;98534.90;236015;1195;140717;-64
2021/09/17 10:53:41;;;;;;;3.40;1.90;;;;;;;16.53;71.42;98533.03;235918;1195;137857;-65
2021/09/17 10:58:46;;;;;;;3.90;2.20;;;;;;;16.58;71.16;98532.06;235992;1195;138863;-66
2021/09/17 11:03:56;;;;;;;5.00;1.90;;;;;;;16.58;71.15;98535.97;235314;1195;138715;-64
2021/09/17 11:09:02;;;;;;;3.30;2.10;;;;;;;16.65;71.15;98531.23;235889;1195;138811;-65
2021/09/17 11:14:13;;;;;;;3.10;1.90;;;;;;;16.69;71.12;98527.60;236074;1195;138450;-65
2021/09/17 11:19:19;;;;;;;3.80;2.70;;;;;;;16.70;71.14;98529.69;236110;1195;138159;-65
2021/09/17 11:24:33;;;;;;;4.00;2.20;;;;;;;16.72;71.15;98530.73;235301;1196;138661;-64
2021/09/17 11:29:36;;;;;;;3.10;2.30;;;;;;;16.74;71.31;98522.81;235728;1196;139226;-64
2021/09/17 11:34:40;;;;;;;3.80;3.00;;;;;;;16.86;71.30;98518.11;235857;1196;138627;-64
2021/09/17 11:39:43;;;;;;;8.50;4.20;;;;;;;16.90;71.28;98520.27;236092;1195;138669;-64
2021/09/17 11:44:48;;;;;;;5.90;4.10;;;;;;;16.88;71.16;98518.45;235482;1196;138202;-66
2021/09/17 11:49:55;;;;;;;6.00;4.10;;;;;;;16.80;71.00;98513.32;235445;1196;138527;-65
2021/09/17 11:55:07;;;;;;;6.40;4.40;;;;;;;16.86;71.32;98508.06;235845;1196;139780;-64
2021/09/17 12:00:15;;;;;;;8.70;5.40;;;;;;;16.94;71.38;98504.07;235948;1195;139933;-64
2021/09/17 12:05:25;;;;;;;7.80;6.40;;;;;;;16.97;71.44;98502.20;235990;1195;137625;-64
2021/09/17 12:10:34;;;;;;;7.80;7.00;;;;;;;17.01;71.36;98512.14;235997;1195;137752;-64
2021/09/17 12:15:45;;;;;;;7.90;6.70;;;;;;;17.04;71.48;98511.59;236071;1195;138013;-64
2021/09/17 12:20:49;;;;;;;9.10;6.50;;;;;;;17.09;71.49;98512.48;235779;1196;139584;-66
2021/09/17 12:25:52;;;;;;;11.10;8.10;;;;;;;17.09;71.44;98509.16;235897;1195;138968;-64
2021/09/17 12:31:00;;;;;;;9.60;8.10;;;;;;;17.15;71.46;98512.99;235925;1196;138251;-64
2021/09/17 12:36:13;;;;;;;13.70;9.40;;;;;;;17.13;71.09;98509.71;235652;1196;138706;-64
2021/09/17 12:41:16;;;;;;;11.70;8.50;;;;;;;17.14;71.15;98507.84;234924;1196;138873;-65
2021/09/17 12:46:42;;;;;;;11.30;8.70;;;;;;;17.19;71.60;98505.28;235914;1196;138949;-65
2021/09/17 12:51:59;;;;;;;13.70;9.40;;;;;;;17.28;71.37;98506.54;235924;1195;139388;-66
2021/09/17 12:57:19;;;;;;;12.80;8.80;;;;;;;17.30;71.36;98502.72;236102;1194;138010;-65
2021/09/17 13:02:22;;;;;;;11.80;9.30;;;;;;;17.26;71.21;98501.65;235907;1195;139214;-65
2021/09/17 13:07:26;;;;;;;9.50;8.40;;;;;;;17.17;71.07;98506.52;235531;1196;139334;-64
2021/09/17 13:12:29;;;;;;;11.10;9.10;;;;;;;17.17;71.41;98509.70;235721;1194;138984;-65
2021/09/17 13:17:33;;;;;;;12.60;10.70;;;;;;;17.18;71.30;98511.59;235853;1195;139418;-64
2021/09/17 13:22:37;;;;;;;365.00;253.80;;;;;;;17.25;71.81;98511.64;235987;1196;138496;-67
2021/09/17 13:27:43;;;;;;;16.80;13.70;;;;;;;17.33;71.81;98501.04;235614;1196;139122;-65
2021/09/17 13:32:46;;;;;;;14.70;10.80;;;;;;;17.41;71.84;98501.05;235620;1196;139263;-66
2021/09/17 13:37:51;;;;;;;17.70;10.50;;;;;;;17.46;71.67;98500.55;235594;1196;139625;-64
2021/09/17 13:42:54;;;;;;;15.80;12.00;;;;;;;17.54;71.70;98501.09;235885;1195;139081;-65
2021/09/17 13:47:58;;;;;;;17.10;12.00;;;;;;;17.50;71.32;98499.14;235323;1196;138669;-67
2021/09/17 13:53:01;;;;;;;14.10;10.50;;;;;;;17.49;71.48;98494.70;235493;1195;138785;-67
2021/09/17 13:58:04;;;;;;;13.20;11.00;;;;;;;17.45;71.17;98485.94;235888;1195;140110;-66
2021/09/17 14:03:07;;;;;;;13.80;11.40;;;;;;;17.44;71.19;98481.81;235946;1195;139515;-67
2021/09/17 14:08:11;;;;;;;14.70;12.10;;;;;;;17.40;71.14;98480.70;235833;1196;139897;-67
2021/09/17 14:13:14;;;;;;;15.10;13.20;;;;;;;17.37;71.34;98476.80;235570;1196;140600;-65
2021/09/17 14:18:19;;;;;;;16.90;11.70;;;;;;;17.27;71.35;98469.30;235578;1196;141145;-64
2021/09/17 14:23:22;;;;;;;14.60;11.10;;;;;;;17.24;71.20;98473.85;235420;1196;140268;-64
2021/09/17 14:28:26;;;;;;;15.90;12.60;;;;;;;17.22;71.18;98469.44;235756;1195;139695;-64
2021/09/17 14:33:29;;;;;;;112.40;78.80;;;;;;;17.20;71.60;98468.51;235724;1195;139394;-66
2021/09/17 14:38:32;;;;;;;19.90;15.70;;;;;;;17.22;71.61;98473.35;235691;1196;139284;-66
2021/09/17 14:43:35;;;;;;;16.80;12.80;;;;;;;17.19;71.49;98480.00;235675;1196;138864;-65
2021/09/17 14:48:38;;;;;;;14.30;10.50;;;;;;;17.15;71.50;98480.90;235774;1195;139684;-65
2021/09/17 14:53:42;;;;;;;14.20;12.30;;;;;;;17.15;71.50;98476.80;235760;1196;138809;-65
2021/09/17 14:58:45;;;;;;;14.00;12.50;;;;;;;17.18;71.87;98477.35;235514;1190;139017;-65
2021/09/17 15:03:48;;;;;;;15.20;13.20;;;;;;;17.18;71.55;98479.90;235994;1195;139328;-66
2021/09/17 15:08:53;;;;;;;15.70;12.00;;;;;;;17.08;71.56;98476.02;235308;1196;139295;-65
2021/09/17 15:13:59;;;;;;;12.90;11.00;;;;;;;17.02;71.59;98476.08;235575;1196;139572;-65
2021/09/17 15:19:02;;;;;;;16.50;13.20;;;;;;;16.98;71.90;98473.58;235677;1195;139346;-66
2021/09/17 15:24:06;;;;;;;15.60;12.90;;;;;;;16.99;71.95;98470.67;235870;1195;138435;-65
2021/09/17 15:29:09;;;;;;;16.80;14.50;;;;;;;17.03;72.31;98469.46;235610;1196;138647;-66
2021/09/17 15:34:12;;;;;;;13.40;12.00;;;;;;;17.03;72.16;98464.84;235549;1190;138508;-65
2021/09/17 15:39:16;;;;;;;15.80;13.00;;;;;;;17.08;72.22;98468.72;235559;1195;139283;-68
2021/09/17 15:44:20;;;;;;;20.50;14.40;;;;;;;17.11;72.32;98465.69;235862;1195;139658;-65
2021/09/17 15:49:23;;;;;;;21.60;15.30;;;;;;;17.08;72.35;98460.81;235601;1196;138907;-66
2021/09/17 15:54:26;;;;;;;17.60;15.00;;;;;;;17.10;72.42;98462.05;235535;1196;138306;-65
2021/09/17 15:59:30;;;;;;;16.00;13.30;;;;;;;17.10;72.40;98465.23;235474;1195;139113;-65
2021/09/17 16:04:33;;;;;;;15.30;12.40;;;;;;;17.08;72.23;98469.40;235752;1195;139958;-65
2021/09/17 16:09:36;;;;;;;19.00;14.20;;;;;;;17.10;72.36;98475.90;235465;1196;139528;-69
2021/09/17 16:14:44;;;;;;;16.60;14.80;;;;;;;17.13;72.40;98474.65;235537;1196;138899;-64
2021/09/17 16:19:49;;;;;;;20.50;15.70;;;;;;;17.14;72.50;98479.17;235605;1196;139401;-64
2021/09/17 16:24:52;;;;;;;17.50;13.40;;;;;;;17.10;72.42;98480.51;236019;1195;138694;-65
2021/09/17 16:29:59;;;;;;;23.50;16.70;;;;;;;17.11;72.46;98480.36;235080;1195;139564;-66
2021/09/17 16:35:03;;;;;;;18.90;14.10;;;;;;;17.15;72.46;98481.08;235460;1196;139952;-65
2021/09/17 16:40:07;;;;;;;19.30;14.30;;;;;;;17.16;72.39;98484.75;235820;1196;138728;-65
2021/09/17 16:45:12;;;;;;;17.60;15.10;;;;;;;17.16;72.34;98487.10;235787;1195;138620;-64
2021/09/17 16:50:17;;;;;;;17.90;14.50;;;;;;;17.15;72.27;98489.36;235633;1195;138935;-63
2021/09/17 16:55:22;;;;;;;16.00;12.80;;;;;;;17.12;72.19;98488.90;235050;1196;141003;-65
2021/09/17 17:00:25;;;;;;;659.60;440.20;;;;;;;17.10;72.23;98480.84;235540;1195;138812;-65
2021/09/17 17:05:30;;;;;;;22.10;17.90;;;;;;;17.14;72.50;98477.42;236283;1195;138757;-66
2021/09/17 17:10:34;;;;;;;20.90;16.30;;;;;;;17.13;72.21;98480.73;234846;1196;138944;-66
2021/09/17 17:15:38;;;;;;;19.90;15.10;;;;;;;17.13;72.44;98487.39;235599;1196;139062;-66
2021/09/17 17:20:42;;;;;;;18.50;14.70;;;;;;;17.12;72.44;98490.20;235387;1196;140171;-66
2021/09/17 17:25:45;;;;;;;17.60;15.50;;;;;;;17.11;72.44;98491.84;235614;1196;139484;-66
2021/09/17 17:30:51;;;;;;;;;;;;;;;17.07;72.28;98487.09;235477;1196;139318;-65
2021/09/17 17:35:54;;;;;;;22.10;16.40;;;;;;;17.01;72.31;98492.30;235536;1196;125312;-66
2021/09/17 17:41:00;;;;;;;20.90;15.60;;;;;;;17.00;72.51;98495.98;235587;1196;138663;-67
2021/09/17 17:46:06;;;;;;;19.60;15.00;;;;;;;17.00;72.62;98502.84;235505;1196;139660;-66
2021/09/17 17:51:11;;;;;;;21.90;16.40;;;;;;;17.02;72.60;98506.69;235606;1196;139345;-66
2021/09/17 17:56:15;;;;;;;24.10;16.60;;;;;;;17.08;72.74;98508.50;235604;1196;139206;-66
2021/09/17 18:01:19;;;;;;;18.90;14.80;;;;;;;17.08;72.71;98512.10;235341;1196;138856;-66
2021/09/17 18:06:23;;;;;;;472.30;354.00;;;;;;;17.07;72.81;98514.48;235502;1195;138698;-66
2021/09/17 18:11:27;;;;;;;14.90;11.60;;;;;;;17.14;72.90;98518.27;235893;1195;140105;-67
2021/09/17 18:16:32;;;;;;;16.90;11.10;;;;;;;17.17;72.70;98519.54;235468;1196;139342;-67
2021/09/17 18:21:37;;;;;;;;;;;;;;;17.17;72.44;98523.34;235614;1195;138492;-66
2021/09/17 18:26:40;;;;;;;12.30;10.00;;;;;;;17.10;72.24;98528.02;235793;1195;125315;-65
2021/09/17 18:31:44;;;;;;;12.60;8.00;;;;;;;17.02;72.18;98529.88;235715;1195;138963;-65
2021/09/17 18:36:51;;;;;;;105.00;81.40;;;;;;;16.99;71.98;98536.42;235590;1195;139384;-65
2021/09/17 18:41:54;;;;;;;13.40;10.90;;;;;;;17.01;72.67;98534.06;235629;1195;139614;-66
2021/09/17 18:46:59;;;;;;;12.50;9.20;;;;;;;17.28;73.20;98533.08;235858;1195;138625;-66
2021/09/17 18:52:07;;;;;;;12.80;9.30;;;;;;;17.27;72.17;98536.94;235737;1195;139142;-67
2021/09/17 18:57:10;;;;;;;10.60;8.30;;;;;;;17.15;71.81;98533.74;235597;1195;138667;-66
2021/09/17 19:02:15;;;;;;;11.20;8.00;;;;;;;17.04;71.74;98533.46;235365;1196;139125;-66
2021/09/17 19:07:19;;;;;;;10.60;8.40;;;;;;;16.99;71.92;98537.64;234161;1196;139637;-66
2021/09/17 19:12:22;;;;;;;96.80;71.30;;;;;;;16.95;71.87;98538.78;235689;1195;140097;-66
2021/09/17 19:17:26;;;;;;;13.60;10.30;;;;;;;16.92;71.81;98535.83;235867;1196;138421;-68
2021/09/17 19:22:29;;;;;;;9.60;8.20;;;;;;;16.90;71.85;98536.23;235792;1195;139373;-67
2021/09/17 19:27:33;;;;;;;11.80;8.60;;;;;;;16.85;71.46;98532.34;235774;1195;139105;-65
2021/09/17 19:32:37;;;;;;;13.20;8.10;;;;;;;16.85;71.67;98541.33;235549;1196;138908;-65
2021/09/17 19:37:45;;;;;;;10.50;8.30;;;;;;;16.83;71.53;98537.58;235785;1196;138471;-66
2021/09/17 19:42:50;;;;;;;12.50;8.70;;;;;;;16.77;71.60;98531.31;235840;1195;138142;-67
2021/09/17 19:47:54;;;;;;;488.50;351.70;;;;;;;16.70;71.44;98530.89;235550;1196;138774;-65
2021/09/17 19:52:59;;;;;;;15.60;8.90;;;;;;;16.73;71.88;98532.73;235764;1195;140079;-67
2021/09/17 19:58:02;;;;;;;12.10;8.20;;;;;;;16.78;71.79;98530.66;235898;1195;139097;-70
2021/09/17 20:03:05;;;;;;;11.80;8.00;;;;;;;16.71;71.45;98531.13;236059;1195;138564;-66
2021/09/17 20:08:10;;;;;;;10.40;8.40;;;;;;;16.69;71.42;98531.92;236082;1195;138447;-67
2021/09/17 20:13:17;;;;;;;10.10;6.80;;;;;;;16.65;71.55;98531.54;235124;1195;138664;-65
2021/09/17 20:18:21;;;;;;;11.00;7.40;;;;;;;16.59;71.26;98533.62;235731;1195;139107;-65
2021/09/17 20:23:24;;;;;;;10.20;7.40;;;;;;;16.57;71.48;98528.55;235801;1196;139889;-68
2021/09/17 20:28:27;;;;;;;10.30;7.50;;;;;;;16.54;71.72;98531.50;235262;1195;138567;-70
2021/09/17 20:33:34;;;;;;;12.60;8.10;;;;;;;16.50;71.63;98531.19;236004;1195;138230;-71
2021/09/17 20:38:38;;;;;;;9.60;7.10;;;;;;;16.42;71.25;98532.36;235781;1195;139292;-66
2021/09/17 20:43:41;;;;;;;12.80;7.80;;;;;;;16.36;71.30;98534.29;235755;1196;140044;-65
2021/09/17 20:48:45;;;;;;;12.80;8.00;;;;;;;16.33;71.55;98534.43;235830;1196;139489;-68
2021/09/17 20:53:48;;;;;;;16.20;8.50;;;;;;;16.29;71.46;98539.45;235874;1195;138526;-67
2021/09/17 20:58:52;;;;;;;11.30;8.00;;;;;;;16.26;71.53;98533.77;235397;1196;138185;-70
2021/09/17 21:03:55;;;;;;;9.50;7.40;;;;;;;16.24;71.69;98536.81;235684;1196;138323;-65
2021/09/17 21:08:58;;;;;;;10.50;7.20;;;;;;;16.24;71.65;98530.30;235289;1196;139140;-68
2021/09/17 21:14:02;;;;;;;13.30;7.80;;;;;;;16.24;71.63;98535.98;235111;1195;139348;-63
2021/09/17 21:19:06;;;;;;;14.20;8.40;;;;;;;16.18;71.65;98535.86;235379;1196;139105;-63
2021/09/17 21:24:09;;;;;;;14.10;8.70;;;;;;;16.11;71.63;98535.63;236077;1195;138918;-65
2021/09/17 21:29:13;;;;;;;11.20;8.00;;;;;;;16.04;71.63;98533.87;235755;1196;138703;-63
2021/09/17 21:34:17;;;;;;;12.90;8.00;;;;;;;16.02;71.73;98530.30;235958;1195;139857;-64
2021/09/17 21:39:20;;;;;;;12.10;8.80;;;;;;;16.01;71.71;98530.23;235848;1196;140502;-65
2021/09/17 21:44:23;;;;;;;13.30;8.30;;;;;;;16.00;71.70;98526.98;235710;1196;138716;-64
2021/09/17 21:49:27;;;;;;;15.70;9.60;;;;;;;15.97;71.66;98531.48;235465;1196;138509;-63
2021/09/17 21:54:30;;;;;;;13.40;7.90;;;;;;;15.94;71.81;98530.89;235736;1195;139593;-63
2021/09/17 21:59:35;;;;;;;13.80;8.70;;;;;;;15.92;71.99;98528.25;235957;1195;139246;-63
2021/09/17 22:04:41;;;;;;;15.20;9.60;;;;;;;15.98;72.08;98531.95;234757;1196;139365;-62
2021/09/17 22:09:47;;;;;;;14.00;10.60;;;;;;;16.00;71.98;98527.98;235792;1195;138602;-69
2021/09/17 22:14:57;;;;;;;15.50;10.10;;;;;;;15.99;71.92;98525.09;235092;1195;138828;-72
2021/09/17 22:20:01;;;;;;;11.40;8.70;;;;;;;15.93;71.95;98529.21;235624;1195;139290;-66
2021/09/17 22:25:06;;;;;;;10.90;8.00;;;;;;;15.88;71.87;98525.52;235807;1195;139013;-67
2021/09/17 22:30:11;;;;;;;14.30;9.00;;;;;;;15.89;72.04;98521.02;235928;1195;138861;-64
2021/09/17 22:35:17;;;;;;;11.40;8.70;;;;;;;15.91;72.02;98520.61;236076;1195;138366;-65
2021/09/17 22:40:25;;;;;;;12.70;8.80;;;;;;;15.89;71.97;98522.21;235860;1195;138674;-64
2021/09/17 22:45:30;;;;;;;11.60;8.10;;;;;;;15.84;71.87;98518.40;235798;1195;138456;-66
2021/09/17 22:50:34;;;;;;;10.40;7.70;;;;;;;15.80;71.66;98519.31;235778;1195;138978;-68
2021/09/17 22:55:38;;;;;;;12.50;8.60;;;;;;;15.78;71.75;98520.38;235906;1195;138819;-64
2021/09/17 23:00:41;;;;;;;11.40;9.20;;;;;;;15.80;71.90;98519.13;235740;1195;139190;-64
2021/09/17 23:05:45;;;;;;;13.90;10.70;;;;;;;15.87;72.19;98518.14;235980;1195;137814;-63